Time;durP1;ratioP1;P1;durP2;ratioP2;P2;SDS_P1;SDS_P2;PMS_P1;PMS_P2;Temp;Humidity;BMP_temperature;BMP_pressure;BME280_temperature;BME280_humidity;BME280_pressure;Samples;Min_cycle;Max_cycle;Signal;HPM_P1;HPM_P2
2021/09/28 00:00:45;;;;;;;5.45;4.05;;;;;;;;;;5055141;28;20054;-42
2021/09/28 00:03:11;;;;;;;14.13;5.07;;;;;;;;;;5055108;28;20024;-41
2021/09/28 00:05:36;;;;;;;8.63;3.63;;;;;;;;;;5055037;28;20043;-42
2021/09/28 00:08:02;;;;;;;8.48;4.47;;;;;;;;;;5054909;28;20028;-42
2021/09/28 00:10:27;;;;;;;14.30;3.72;;;;;;;;;;5054903;28;20124;-41
2021/09/28 00:12:53;;;;;;;7.38;3.92;;;;;;;;;;5054799;28;20041;-42
2021/09/28 00:15:18;;;;;;;11.48;4.40;;;;;;;;;;5054865;28;20365;-42
2021/09/28 00:17:44;;;;;;;6.18;4.40;;;;;;;;;;5055207;28;20067;-41
2021/09/28 00:20:10;;;;;;;6.82;4.30;;;;;;;;;;5055071;28;20527;-42
2021/09/28 00:22:36;;;;;;;7.50;4.32;;;;;;;;;;5054979;28;20348;-42
2021/09/28 00:25:02;;;;;;;6.13;4.43;;;;;;;;;;5054924;28;20040;-41
2021/09/28 00:27:29;;;;;;;6.35;4.45;;;;;;;;;;5054744;28;20476;-41
2021/09/28 00:29:54;;;;;;;6.47;4.30;;;;;;;;;;5054834;28;20029;-42
2021/09/28 00:32:20;;;;;;;8.45;5.38;;;;;;;;;;5054858;28;20109;-42
2021/09/28 00:34:45;;;;;;;8.82;5.10;;;;;;;;;;5054808;28;20544;-42
2021/09/28 00:37:11;;;;;;;7.07;4.53;;;;;;;;;;5054422;28;20020;-42
2021/09/28 00:39:37;;;;;;;12.07;4.88;;;;;;;;;;5054443;28;20037;-42
2021/09/28 00:42:02;;;;;;;6.47;4.22;;;;;;;;;;5054407;28;20096;-41
2021/09/28 00:44:33;;;;;;;7.72;4.57;;;;;;;;;;5054353;28;20122;-42
2021/09/28 00:46:59;;;;;;;6.60;4.85;;;;;;;;;;5054302;28;20032;-42
2021/09/28 00:49:24;;;;;;;6.75;4.15;;;;;;;;;;5052094;28;20032;-42
2021/09/28 00:51:50;;;;;;;7.00;5.00;;;;;;;;;;5054121;28;20064;-42
2021/09/28 00:54:15;;;;;;;8.18;4.80;;;;;;;;;;5054267;28;20048;-41
2021/09/28 00:56:41;;;;;;;7.05;4.97;;;;;;;;;;5054415;28;20104;-42
2021/09/28 00:59:07;;;;;;;6.72;4.72;;;;;;;;;;5053949;28;20032;-42
2021/09/28 01:01:34;;;;;;;8.75;5.20;;;;;;;;;;5069821;28;20021;-41
2021/09/28 01:04:00;;;;;;;7.30;4.63;;;;;;;;;;5053788;28;20403;-42
2021/09/28 01:06:25;;;;;;;10.52;5.00;;;;;;;;;;5053898;28;20040;-42
2021/09/28 01:08:51;;;;;;;7.63;4.85;;;;;;;;;;5053755;28;20041;-41
2021/09/28 01:11:16;;;;;;;8.88;5.25;;;;;;;;;;5053831;28;20090;-42
2021/09/28 01:13:42;;;;;;;8.27;5.68;;;;;;;;;;5053829;28;20037;-42
2021/09/28 01:16:09;;;;;;;11.57;5.20;;;;;;;;;;5053696;28;20025;-41
2021/09/28 01:18:36;;;;;;;7.40;4.90;;;;;;;;;;5053972;28;20024;-42
2021/09/28 01:21:02;;;;;;;9.77;5.38;;;;;;;;;;5069071;28;20021;-41
2021/09/28 01:23:28;;;;;;;6.38;3.90;;;;;;;;;;5053634;28;20111;-41
2021/09/28 01:25:54;;;;;;;10.52;5.00;;;;;;;;;;5053734;28;20668;-42
2021/09/28 01:28:19;;;;;;;6.78;4.95;;;;;;;;;;5053893;28;20047;-43
2021/09/28 01:30:45;;;;;;;10.10;5.18;;;;;;;;;;5053469;28;20371;-42
2021/09/28 01:33:10;;;;;;;10.15;4.70;;;;;;;;;;5051971;28;20118;-42
2021/09/28 01:35:38;;;;;;;13.27;6.00;;;;;;;;;;5053292;28;20025;-42
2021/09/28 01:38:03;;;;;;;12.35;6.15;;;;;;;;;;5053321;28;20471;-42
2021/09/28 01:40:29;;;;;;;6.18;4.57;;;;;;;;;;5053305;28;20118;-42
2021/09/28 01:42:54;;;;;;;9.02;5.22;;;;;;;;;;5052268;28;20020;-42
2021/09/28 01:45:19;;;;;;;7.05;4.80;;;;;;;;;;5053476;28;20100;-42
2021/09/28 01:47:45;;;;;;;6.70;4.53;;;;;;;;;;5053002;28;20047;-42
2021/09/28 01:50:10;;;;;;;9.88;5.25;;;;;;;;;;5053102;28;20032;-42
2021/09/28 01:52:39;;;;;;;5.35;4.68;;;;;;;;;;5053127;28;20028;-42
2021/09/28 01:55:06;;;;;;;8.55;5.28;;;;;;;;;;5052870;28;20412;-42
2021/09/28 01:57:31;;;;;;;7.47;5.32;;;;;;;;;;5053079;28;20096;-41
2021/09/28 01:59:57;;;;;;;5.60;4.22;;;;;;;;;;5051937;28;20111;-41
2021/09/28 02:02:22;;;;;;;6.78;3.97;;;;;;;;;;5052991;28;20357;-42
2021/09/28 02:04:48;;;;;;;6.03;4.15;;;;;;;;;;5052895;28;20490;-42
2021/09/28 02:07:13;;;;;;;7.93;4.57;;;;;;;;;;5052680;28;20021;-42
2021/09/28 02:09:38;;;;;;;6.88;4.35;;;;;;;;;;5052676;28;20049;-42
2021/09/28 02:12:04;;;;;;;8.82;4.45;;;;;;;;;;5052656;28;20029;-42
2021/09/28 02:14:30;;;;;;;8.05;5.18;;;;;;;;;;5052724;28;20112;-42
2021/09/28 02:16:56;;;;;;;5.72;5.13;;;;;;;;;;5052643;28;20096;-42
2021/09/28 02:19:21;;;;;;;9.90;4.80;;;;;;;;;;5052955;28;20120;-42
2021/09/28 02:21:47;;;;;;;15.63;5.28;;;;;;;;;;5052688;28;20013;-41
2021/09/28 02:24:13;;;;;;;5.70;4.10;;;;;;;;;;5052678;28;20383;-41
2021/09/28 02:26:38;;;;;;;6.00;4.68;;;;;;;;;;5052846;28;20479;-42
2021/09/28 02:29:04;;;;;;;6.53;3.88;;;;;;;;;;5052758;28;20040;-42
2021/09/28 02:31:30;;;;;;;8.45;4.72;;;;;;;;;;5052323;28;20517;-41
2021/09/28 02:33:56;;;;;;;9.35;4.50;;;;;;;;;;5052320;28;20124;-42
2021/09/28 02:36:21;;;;;;;8.88;5.50;;;;;;;;;;5052346;28;20021;-42
2021/09/28 02:38:47;;;;;;;9.50;4.88;;;;;;;;;;5052665;28;20028;-42
2021/09/28 02:41:12;;;;;;;6.60;4.53;;;;;;;;;;5052349;28;20044;-42
2021/09/28 02:43:38;;;;;;;5.60;4.20;;;;;;;;;;5052559;28;20025;-42
2021/09/28 02:46:03;;;;;;;8.10;4.18;;;;;;;;;;5052444;28;20037;-46
2021/09/28 02:48:30;;;;;;;10.45;5.22;;;;;;;;;;5052325;28;20036;-42
2021/09/28 02:50:55;;;;;;;6.22;4.32;;;;;;;;;;5052394;28;20108;-42
2021/09/28 02:53:21;;;;;;;9.15;5.22;;;;;;;;;;5052472;28;20120;-42
2021/09/28 02:55:46;;;;;;;4.88;3.83;;;;;;;;;;5052160;28;20088;-41
2021/09/28 02:58:12;;;;;;;6.70;4.22;;;;;;;;;;5052037;28;20116;-42
2021/09/28 03:00:37;;;;;;;5.85;4.18;;;;;;;;;;5052476;28;20380;-42
2021/09/28 03:03:03;;;;;;;6.05;4.03;;;;;;;;;;5052119;28;20475;-41
2021/09/28 03:05:28;;;;;;;5.80;4.18;;;;;;;;;;5052089;28;20021;-41
2021/09/28 03:07:53;;;;;;;4.85;3.83;;;;;;;;;;5052064;28;20037;-41
2021/09/28 03:10:19;;;;;;;6.65;4.22;;;;;;;;;;5051969;28;20045;-42
2021/09/28 03:12:45;;;;;;;6.00;3.97;;;;;;;;;;5053035;28;20490;-42
2021/09/28 03:15:10;;;;;;;6.25;4.15;;;;;;;;;;5055879;28;20033;-41
2021/09/28 03:17:35;;;;;;;8.13;4.57;;;;;;;;;;5055704;28;20100;-42
2021/09/28 03:20:01;;;;;;;7.63;4.45;;;;;;;;;;5055977;28;20021;-42
2021/09/28 03:22:26;;;;;;;8.20;4.25;;;;;;;;;;5055530;28;20056;-42
2021/09/28 03:24:52;;;;;;;6.22;3.70;;;;;;;;;;5055738;28;20021;-42
2021/09/28 03:27:17;;;;;;;7.57;3.70;;;;;;;;;;5055885;28;20032;-42
2021/09/28 03:29:42;;;;;;;10.20;4.05;;;;;;;;;;5055755;28;20112;-41
2021/09/28 03:32:08;;;;;;;6.15;3.90;;;;;;;;;;5055556;28;20075;-42
2021/09/28 03:34:33;;;;;;;5.95;3.83;;;;;;;;;;5055989;28;20029;-42
2021/09/28 03:36:59;;;;;;;8.90;4.07;;;;;;;;;;5054232;28;20025;-42
2021/09/28 03:39:24;;;;;;;7.93;4.22;;;;;;;;;;5071146;28;20024;-42
2021/09/28 03:41:50;;;;;;;6.15;3.55;;;;;;;;;;5055869;28;20013;-42
2021/09/28 03:44:16;;;;;;;4.35;3.40;;;;;;;;;;5055696;28;20385;-42
2021/09/28 03:46:41;;;;;;;6.90;4.15;;;;;;;;;;5055560;28;20035;-41
2021/09/28 03:49:07;;;;;;;5.57;4.00;;;;;;;;;;5055623;28;20099;-44
2021/09/28 03:51:32;;;;;;;6.55;3.53;;;;;;;;;;5055408;28;20044;-41
2021/09/28 03:53:57;;;;;;;6.28;4.20;;;;;;;;;;5055158;28;20029;-42
2021/09/28 03:56:23;;;;;;;4.13;3.08;;;;;;;;;;5055591;28;20047;-41
2021/09/28 03:58:48;;;;;;;9.40;4.13;;;;;;;;;;5055514;28;20021;-42
2021/09/28 04:01:14;;;;;;;7.93;4.50;;;;;;;;;;5055166;28;20020;-42
2021/09/28 04:03:40;;;;;;;5.82;4.10;;;;;;;;;;5070976;28;20047;-42
2021/09/28 04:06:05;;;;;;;8.93;4.18;;;;;;;;;;5053784;28;20021;-42
2021/09/28 04:08:31;;;;;;;15.00;4.18;;;;;;;;;;5054982;28;20025;-42
2021/09/28 04:10:56;;;;;;;10.25;4.15;;;;;;;;;;5055075;28;20044;-42
2021/09/28 04:13:22;;;;;;;5.68;3.78;;;;;;;;;;5054813;28;20037;-42
2021/09/28 04:15:48;;;;;;;7.70;3.67;;;;;;;;;;5054963;28;20056;-42
2021/09/28 04:18:13;;;;;;;8.07;4.30;;;;;;;;;;5055001;28;20025;-42
2021/09/28 04:20:40;;;;;;;8.82;4.18;;;;;;;;;;5054845;28;20390;-41
2021/09/28 04:23:07;;;;;;;4.70;3.97;;;;;;;;;;5054801;28;20492;-42
2021/09/28 04:25:32;;;;;;;7.53;3.53;;;;;;;;;;5053349;28;20060;-42
2021/09/28 04:27:58;;;;;;;9.18;4.55;;;;;;;;;;5054930;28;20052;-42
2021/09/28 04:30:24;;;;;;;4.53;2.65;;;;;;;;;;5054750;28;20523;-41
2021/09/28 04:32:49;;;;;;;5.13;3.38;;;;;;;;;;5054518;28;20025;-41
2021/09/28 04:35:15;;;;;;;5.18;3.20;;;;;;;;;;5069953;28;20111;-41
2021/09/28 04:37:40;;;;;;;5.85;2.50;;;;;;;;;;5054581;28;20525;-42
2021/09/28 04:40:06;;;;;;;5.88;3.58;;;;;;;;;;5054677;28;20100;-42
2021/09/28 04:42:31;;;;;;;8.60;4.50;;;;;;;;;;5054513;28;20017;-42
2021/09/28 04:44:57;;;;;;;8.05;4.35;;;;;;;;;;5054226;28;20029;-42
2021/09/28 04:47:22;;;;;;;9.32;3.30;;;;;;;;;;5054375;28;20029;-42
2021/09/28 04:49:48;;;;;;;7.40;4.68;;;;;;;;;;5054224;28;20036;-42
2021/09/28 04:52:13;;;;;;;7.82;4.05;;;;;;;;;;5054421;28;20021;-42
2021/09/28 04:54:39;;;;;;;5.05;3.42;;;;;;;;;;5054134;28;20166;-42
2021/09/28 04:57:05;;;;;;;6.10;3.90;;;;;;;;;;5054110;28;20017;-42
2021/09/28 04:59:32;;;;;;;7.95;3.50;;;;;;;;;;5054148;28;20035;-41
2021/09/28 05:01:58;;;;;;;4.25;3.28;;;;;;;;;;5054216;28;20184;-43
2021/09/28 05:04:23;;;;;;;4.57;2.92;;;;;;;;;;5054130;28;20128;-42
2021/09/28 05:06:49;;;;;;;5.13;3.60;;;;;;;;;;5053992;28;20101;-42
2021/09/28 05:09:15;;;;;;;10.38;3.33;;;;;;;;;;5069210;28;20140;-41
2021/09/28 05:11:40;;;;;;;6.22;4.00;;;;;;;;;;5054287;28;20029;-42
2021/09/28 05:14:06;;;;;;;5.82;3.67;;;;;;;;;;5053659;28;20058;-42
2021/09/28 05:16:32;;;;;;;7.68;3.83;;;;;;;;;;5053739;28;20024;-41
2021/09/28 05:18:57;;;;;;;6.13;4.15;;;;;;;;;;5053680;28;20048;-43
2021/09/28 05:21:23;;;;;;;4.32;3.22;;;;;;;;;;5053735;28;20053;-42
2021/09/28 05:23:49;;;;;;;8.10;4.20;;;;;;;;;;5053913;28;20031;-42
2021/09/28 05:26:15;;;;;;;11.90;3.53;;;;;;;;;;5053515;28;20047;-42
2021/09/28 05:28:41;;;;;;;9.02;3.78;;;;;;;;;;5053597;28;20025;-42
2021/09/28 05:31:07;;;;;;;9.82;3.80;;;;;;;;;;5053657;28;20021;-41
2021/09/28 05:33:32;;;;;;;8.35;3.17;;;;;;;;;;5053408;28;20476;-42
2021/09/28 05:35:57;;;;;;;5.55;3.03;;;;;;;;;;5053202;28;20028;-42
2021/09/28 05:38:24;;;;;;;8.65;3.92;;;;;;;;;;5053620;28;20043;-42
2021/09/28 05:40:49;;;;;;;7.68;3.05;;;;;;;;;;5053358;28;20024;-41
2021/09/28 05:43:15;;;;;;;10.40;3.40;;;;;;;;;;5053533;28;20387;-42
2021/09/28 05:45:40;;;;;;;7.15;2.97;;;;;;;;;;5053165;28;20021;-41
2021/09/28 05:48:06;;;;;;;7.95;3.70;;;;;;;;;;5053419;28;20443;-41
2021/09/28 05:50:31;;;;;;;6.90;4.10;;;;;;;;;;5053254;28;20055;-42
2021/09/28 05:52:57;;;;;;;5.60;3.58;;;;;;;;;;5052869;28;20384;-42
2021/09/28 05:55:24;;;;;;;3.88;3.40;;;;;;;;;;5053147;28;20048;-42
2021/09/28 05:57:49;;;;;;;9.82;4.20;;;;;;;;;;5053076;28;20104;-42
2021/09/28 06:00:15;;;;;;;4.95;3.42;;;;;;;;;;5052828;28;20536;-42
2021/09/28 06:02:41;;;;;;;7.20;3.08;;;;;;;;;;5053051;28;20075;-42
2021/09/28 06:05:07;;;;;;;5.30;3.80;;;;;;;;;;5052997;28;20045;-42
2021/09/28 06:07:33;;;;;;;5.25;3.83;;;;;;;;;;5052976;28;20064;-41
2021/09/28 06:09:59;;;;;;;6.28;3.13;;;;;;;;;;5052622;28;20053;-42
2021/09/28 06:12:24;;;;;;;8.80;3.58;;;;;;;;;;5052687;28;20098;-42
2021/09/28 06:14:51;;;;;;;4.93;4.05;;;;;;;;;;5068063;28;20045;-41
2021/09/28 06:17:17;;;;;;;4.75;3.17;;;;;;;;;;5052915;28;20029;-41
2021/09/28 06:19:42;;;;;;;6.45;3.53;;;;;;;;;;5052732;28;20507;-42
2021/09/28 06:22:08;;;;;;;4.93;3.22;;;;;;;;;;5052844;28;20495;-42
2021/09/28 06:24:33;;;;;;;8.20;3.33;;;;;;;;;;5052539;28;20016;-42
2021/09/28 06:27:03;;;;;;;5.60;4.80;;;;;;;;;;5052458;28;20380;-41
2021/09/28 06:29:29;;;;;;;4.95;3.47;;;;;;;;;;5052793;28;20056;-41
2021/09/28 06:31:55;;;;;;;4.75;3.35;;;;;;;;;;5052677;28;20057;-42
2021/09/28 06:34:20;;;;;;;5.00;3.38;;;;;;;;;;5052410;28;20025;-43
2021/09/28 06:36:46;;;;;;;5.10;3.40;;;;;;;;;;5052677;28;20025;-42
2021/09/28 06:39:11;;;;;;;5.60;2.97;;;;;;;;;;5052357;28;20028;-42
2021/09/28 06:41:37;;;;;;;3.45;2.45;;;;;;;;;;5052312;28;20108;-42
2021/09/28 06:44:05;;;;;;;5.97;3.47;;;;;;;;;;5052526;28;20128;-42
2021/09/28 06:46:31;;;;;;;3.95;3.15;;;;;;;;;;5052207;28;20061;-43
2021/09/28 06:48:57;;;;;;;5.25;3.22;;;;;;;;;;5051874;28;20020;-42
2021/09/28 06:51:22;;;;;;;3.50;2.83;;;;;;;;;;5052402;28;20391;-42
2021/09/28 06:53:49;;;;;;;4.28;2.58;;;;;;;;;;5052164;28;20029;-42
2021/09/28 06:56:16;;;;;;;3.85;2.67;;;;;;;;;;5052399;28;20021;-41
2021/09/28 06:58:42;;;;;;;4.28;3.22;;;;;;;;;;5052287;28;20135;-41
2021/09/28 07:01:08;;;;;;;9.00;3.53;;;;;;;;;;5052032;28;20048;-42
2021/09/28 07:03:34;;;;;;;6.45;3.25;;;;;;;;;;5052172;28;20383;-41
2021/09/28 07:06:01;;;;;;;4.32;3.17;;;;;;;;;;5052027;28;20029;-42
2021/09/28 07:08:26;;;;;;;7.28;2.53;;;;;;;;;;5052027;28;20029;-42
2021/09/28 07:10:52;;;;;;;5.28;2.75;;;;;;;;;;5052009;28;20060;-42
2021/09/28 07:13:17;;;;;;;4.78;2.97;;;;;;;;;;5051923;28;20040;-41
2021/09/28 07:15:43;;;;;;;4.53;3.05;;;;;;;;;;5052104;28;20029;-41
2021/09/28 07:18:08;;;;;;;4.80;3.10;;;;;;;;;;5052182;28;20027;-42
2021/09/28 07:20:36;;;;;;;5.30;3.15;;;;;;;;;;5052019;28;20029;-42
2021/09/28 07:23:01;;;;;;;3.33;2.47;;;;;;;;;;5051944;28;20079;-42
2021/09/28 07:25:27;;;;;;;4.78;2.97;;;;;;;;;;5051849;28;20032;-42
2021/09/28 07:27:57;;;;;;;4.05;2.72;;;;;;;;;;5050731;28;20017;-42
2021/09/28 07:30:23;;;;;;;3.65;2.70;;;;;;;;;;5051900;28;20498;-42
2021/09/28 07:32:48;;;;;;;5.38;2.90;;;;;;;;;;5051779;28;20029;-42
2021/09/28 07:35:15;;;;;;;4.07;2.75;;;;;;;;;;5067570;28;20032;-42
2021/09/28 07:37:40;;;;;;;5.43;2.33;;;;;;;;;;5051736;28;20028;-42
2021/09/28 07:40:06;;;;;;;9.60;3.17;;;;;;;;;;5051676;28;20028;-41
2021/09/28 07:42:32;;;;;;;8.50;4.20;;;;;;;;;;5052132;28;20009;-41
2021/09/28 07:45:00;;;;;;;3.05;2.75;;;;;;;;;;5051628;28;20044;-41
2021/09/28 07:47:32;;;;;;;4.72;3.28;;;;;;;;;;5051983;28;20111;-42
2021/09/28 07:49:57;;;;;;;7.05;3.17;;;;;;;;;;5051541;28;20060;-42
2021/09/28 07:52:23;;;;;;;4.38;2.80;;;;;;;;;;5051741;28;20056;-42
2021/09/28 07:54:49;;;;;;;3.33;2.35;;;;;;;;;;5051970;28;20450;-42
2021/09/28 07:57:14;;;;;;;3.20;2.33;;;;;;;;;;5051600;28;20044;-42
2021/09/28 07:59:40;;;;;;;2.97;2.40;;;;;;;;;;5054386;28;20029;-42
2021/09/28 08:02:06;;;;;;;2.95;2.65;;;;;;;;;;5055176;28;20021;-42
2021/09/28 08:04:31;;;;;;;3.15;2.72;;;;;;;;;;5055514;28;20025;-42
2021/09/28 08:06:57;;;;;;;3.92;3.13;;;;;;;;;;5055045;28;20447;-42
2021/09/28 08:09:22;;;;;;;3.10;2.22;;;;;;;;;;5055099;28;20057;-42
2021/09/28 08:11:48;;;;;;;8.60;2.80;;;;;;;;;;5055026;28;20035;-42
2021/09/28 08:14:13;;;;;;;7.00;3.00;;;;;;;;;;5054791;28;20080;-42
2021/09/28 08:16:40;;;;;;;4.80;3.17;;;;;;;;;;5055317;28;20044;-42
2021/09/28 08:19:06;;;;;;;7.45;2.83;;;;;;;;;;5055167;28;20036;-41
2021/09/28 08:21:32;;;;;;;4.13;2.70;;;;;;;;;;5054800;28;20017;-42
2021/09/28 08:23:57;;;;;;;5.00;2.60;;;;;;;;;;5053813;28;20031;-42
2021/09/28 08:29:10;;;;;;;5.78;2.50;;;;;;;;;;5054734;28;20025;-41
2021/09/28 08:31:40;;;;;;;7.63;2.90;;;;;;;;;;5070203;28;20080;-42
2021/09/28 08:34:06;;;;;;;5.78;3.13;;;;;;;;;;5054483;28;20037;-42
2021/09/28 08:36:31;;;;;;;6.45;3.63;;;;;;;;;;5054537;28;20109;-42
2021/09/28 08:38:57;;;;;;;6.25;3.28;;;;;;;;;;5054508;28;20066;-41
2021/09/28 08:41:22;;;;;;;3.08;2.58;;;;;;;;;;5054606;28;20029;-42
2021/09/28 08:43:49;;;;;;;4.88;2.45;;;;;;;;;;5054648;28;20021;-42
2021/09/28 08:46:15;;;;;;;3.50;2.53;;;;;;;;;;5054378;28;20025;-42
2021/09/28 08:48:41;;;;;;;4.65;3.40;;;;;;;;;;5054368;28;20025;-41
2021/09/28 08:51:06;;;;;;;5.05;3.00;;;;;;;;;;5052929;28;20383;-42
2021/09/28 08:53:31;;;;;;;4.00;3.17;;;;;;;;;;5054245;28;20035;-42
2021/09/28 08:55:57;;;;;;;3.05;2.47;;;;;;;;;;5054127;28;20033;-42
2021/09/28 08:58:24;;;;;;;11.57;3.63;;;;;;;;;;5054314;28;20071;-42
2021/09/28 09:00:53;;;;;;;3.20;2.28;;;;;;;;;;5054180;28;20471;-42
2021/09/28 09:03:45;;;;;;;5.43;2.78;;;;;;;;;;5054275;28;20021;-42
2021/09/28 09:06:10;;;;;;;6.03;2.40;;;;;;;;;;5052784;28;20041;-42
2021/09/28 09:08:36;;;;;;;5.47;3.05;;;;;;;;;;5053899;28;20472;-42
2021/09/28 09:11:03;;;;;;;5.68;3.30;;;;;;;;;;5053115;28;20033;-42
2021/09/28 09:13:33;;;;;;;4.03;2.53;;;;;;;;;;5053799;28;20037;-42
2021/09/28 09:15:58;;;;;;;3.70;2.65;;;;;;;;;;5053778;28;20032;-42
2021/09/28 09:18:23;;;;;;;5.00;3.00;;;;;;;;;;5053765;28;20017;-41
2021/09/28 09:20:49;;;;;;;7.68;3.47;;;;;;;;;;5053794;28;20025;-42
2021/09/28 09:23:26;;;;;;;4.75;2.72;;;;;;;;;;5053653;28;20025;-42
2021/09/28 09:25:59;;;;;;;5.40;3.28;;;;;;;;;;5052372;28;20035;-41
2021/09/28 09:28:32;;;;;;;4.68;2.63;;;;;;;;;;5053955;28;20379;-42
2021/09/28 09:31:07;;;;;;;4.43;2.90;;;;;;;;;;5053812;28;20021;-41
2021/09/28 09:33:32;;;;;;;5.18;3.03;;;;;;;;;;5053326;28;20037;-42
2021/09/28 09:35:58;;;;;;;4.03;2.72;;;;;;;;;;5053477;28;20479;-42
2021/09/28 09:38:24;;;;;;;4.10;3.10;;;;;;;;;;5053727;28;20033;-42
2021/09/28 09:40:50;;;;;;;4.63;3.03;;;;;;;;;;5052001;28;20021;-41
2021/09/28 09:43:16;;;;;;;4.72;2.88;;;;;;;;;;5068695;28;20392;-42
2021/09/28 09:45:42;;;;;;;5.82;2.67;;;;;;;;;;5053232;28;20371;-42
2021/09/28 09:48:24;;;;;;;7.18;2.72;;;;;;;;;;5068560;28;20037;-42
2021/09/28 09:50:57;;;;;;;4.22;2.83;;;;;;;;;;5053176;28;20079;-42
2021/09/28 09:53:23;;;;;;;4.30;2.60;;;;;;;;;;5053045;28;20037;-42
2021/09/28 09:55:48;;;;;;;3.85;2.80;;;;;;;;;;5053139;28;20017;-42
2021/09/28 09:58:14;;;;;;;4.25;3.05;;;;;;;;;;5053018;28;20083;-42
2021/09/28 10:00:40;;;;;;;4.93;3.50;;;;;;;;;;5053302;28;20092;-43
2021/09/28 10:03:07;;;;;;;6.20;3.33;;;;;;;;;;5052868;28;20120;-42
2021/09/28 10:05:33;;;;;;;3.97;2.80;;;;;;;;;;5053231;28;20107;-42
2021/09/28 10:08:03;;;;;;;4.45;3.42;;;;;;;;;;5052762;28;20403;-42
2021/09/28 10:10:28;;;;;;;6.30;3.08;;;;;;;;;;5052702;28;20087;-45
2021/09/28 10:12:54;;;;;;;3.65;2.47;;;;;;;;;;5052762;28;20072;-41
2021/09/28 10:15:20;;;;;;;6.03;3.58;;;;;;;;;;5052626;28;20013;-41
2021/09/28 10:17:46;;;;;;;4.32;3.35;;;;;;;;;;5053069;28;20061;-42
2021/09/28 10:20:21;;;;;;;5.88;3.72;;;;;;;;;;5052925;28;20017;-42
2021/09/28 10:22:50;;;;;;;5.93;3.47;;;;;;;;;;5052829;28;20036;-42
2021/09/28 10:25:19;;;;;;;5.78;4.07;;;;;;;;;;5052460;28;20507;-42
2021/09/28 10:27:45;;;;;;;4.50;3.15;;;;;;;;;;5051296;28;20035;-41
2021/09/28 10:30:10;;;;;;;10.30;3.60;;;;;;;;;;5052509;28;20088;-42
2021/09/28 10:32:37;;;;;;;5.38;3.17;;;;;;;;;;5052695;28;20116;-42
2021/09/28 10:37:46;;;;;;;4.68;3.05;;;;;;;;;;5052424;28;20025;-43
2021/09/28 10:40:15;;;;;;;8.07;3.75;;;;;;;;;;5052316;28;20071;-42
2021/09/28 10:42:47;;;;;;;7.70;3.15;;;;;;;;;;5052334;28;20017;-42
2021/09/28 10:45:16;;;;;;;5.05;2.45;;;;;;;;;;5051023;28;20024;-42
2021/09/28 10:47:49;;;;;;;6.40;4.10;;;;;;;;;;5052351;28;20472;-42
2021/09/28 10:50:22;;;;;;;3.75;2.80;;;;;;;;;;5052552;28;20025;-42
2021/09/28 10:52:48;;;;;;;6.32;3.58;;;;;;;;;;5052438;28;20158;-43
2021/09/28 10:55:13;;;;;;;6.40;3.75;;;;;;;;;;5052358;28;20491;-42
2021/09/28 10:57:54;;;;;;;8.10;2.75;;;;;;;;;;5052334;28;20104;-42
2021/09/28 11:00:20;;;;;;;4.85;3.08;;;;;;;;;;5052483;28;20053;-41
2021/09/28 11:02:52;;;;;;;3.15;2.30;;;;;;;;;;5050977;28;20457;-43
2021/09/28 11:05:40;;;;;;;4.03;3.00;;;;;;;;;;5052269;28;20052;-42
2021/09/28 11:08:06;;;;;;;5.93;3.20;;;;;;;;;;5052307;28;20037;-42
2021/09/28 11:10:32;;;;;;;5.00;3.08;;;;;;;;;;5052024;28;20044;-42
2021/09/28 11:12:58;;;;;;;4.53;2.83;;;;;;;;;;5052138;28;20041;-42
2021/09/28 11:15:25;;;;;;;4.82;3.00;;;;;;;;;;5052334;28;20445;-42
2021/09/28 11:17:50;;;;;;;3.80;1.92;;;;;;;;;;5052122;28;20500;-41
2021/09/28 11:20:19;;;;;;;8.18;3.30;;;;;;;;;;5051908;28;20055;-42
2021/09/28 11:22:54;;;;;;;4.32;3.55;;;;;;;;;;5052323;28;20028;-42
2021/09/28 11:25:20;;;;;;;6.88;2.22;;;;;;;;;;5051847;28;20029;-42
2021/09/28 11:27:59;;;;;;;4.45;3.30;;;;;;;;;;5067451;28;20108;-42
2021/09/28 11:30:24;;;;;;;4.68;3.25;;;;;;;;;;5067426;28;20040;-42
2021/09/28 11:33:00;;;;;;;6.50;3.70;;;;;;;;;;5050788;28;20025;-42
2021/09/28 11:35:25;;;;;;;5.80;3.38;;;;;;;;;;5055635;28;20087;-42
2021/09/28 11:37:55;;;;;;;6.50;3.00;;;;;;;;;;5055684;28;20025;-42
2021/09/28 11:40:20;;;;;;;6.47;2.58;;;;;;;;;;5055641;28;20029;-42
2021/09/28 11:42:46;;;;;;;3.95;3.15;;;;;;;;;;5055602;28;20039;-42
2021/09/28 11:45:11;;;;;;;4.00;2.78;;;;;;;;;;5055788;28;20036;-42
2021/09/28 11:47:41;;;;;;;5.28;2.72;;;;;;;;;;5055576;28;20367;-41
2021/09/28 11:50:07;;;;;;;3.72;3.17;;;;;;;;;;5055358;28;20033;-42
2021/09/28 11:52:35;;;;;;;3.72;2.67;;;;;;;;;;5055475;28;20046;-42
2021/09/28 11:55:01;;;;;;;5.80;3.45;;;;;;;;;;5055190;28;20068;-42
2021/09/28 11:57:28;;;;;;;5.63;2.65;;;;;;;;;;5055667;28;20086;-42
2021/09/28 11:59:59;;;;;;;3.30;2.85;;;;;;;;;;5055616;28;20048;-42
2021/09/28 12:02:30;;;;;;;4.60;2.72;;;;;;;;;;5055486;28;20111;-42
2021/09/28 12:10:14;;;;;;;6.13;4.07;;;;;;;;;;5053746;28;20048;-42
2021/09/28 12:12:40;;;;;;;4.10;2.97;;;;;;;;;;5055278;28;20171;-42
2021/09/28 12:15:06;;;;;;;3.83;3.17;;;;;;;;;;5070354;28;20060;-41
2021/09/28 12:17:35;;;;;;;3.85;2.53;;;;;;;;;;5054992;28;20438;-42
2021/09/28 12:20:06;;;;;;;4.10;3.13;;;;;;;;;;5054867;28;20031;-41
2021/09/28 12:22:33;;;;;;;3.78;3.05;;;;;;;;;;5054858;28;20028;-42
2021/09/28 12:24:59;;;;;;;5.55;3.28;;;;;;;;;;5055227;28;20024;-41
2021/09/28 12:27:26;;;;;;;6.40;3.53;;;;;;;;;;5054804;28;20041;-42
2021/09/28 12:29:52;;;;;;;5.57;3.47;;;;;;;;;;5055011;28;20028;-42
2021/09/28 12:32:18;;;;;;;6.82;3.35;;;;;;;;;;5054617;28;20033;-41
2021/09/28 12:35:00;;;;;;;2.97;2.63;;;;;;;;;;5054917;28;20075;-42
2021/09/28 12:37:26;;;;;;;6.07;3.40;;;;;;;;;;5054526;28;20031;-42
2021/09/28 12:39:58;;;;;;;5.05;3.45;;;;;;;;;;5054607;28;20047;-41
2021/09/28 12:42:24;;;;;;;5.45;3.95;;;;;;;;;;5054584;28;20025;-42
2021/09/28 12:44:54;;;;;;;6.13;3.75;;;;;;;;;;5053497;28;20017;-41
2021/09/28 12:47:24;;;;;;;11.73;3.22;;;;;;;;;;5054179;28;20025;-42
2021/09/28 12:49:50;;;;;;;4.80;3.28;;;;;;;;;;5054376;28;20424;-41
2021/09/28 12:52:15;;;;;;;5.93;3.80;;;;;;;;;;5054375;28;20056;-42
2021/09/28 12:54:41;;;;;;;4.75;3.58;;;;;;;;;;5054297;28;20032;-42
2021/09/28 12:57:06;;;;;;;8.27;3.55;;;;;;;;;;5054147;28;20029;-42
2021/09/28 12:59:32;;;;;;;5.82;3.35;;;;;;;;;;5054183;28;20028;-41
2021/09/28 13:01:57;;;;;;;13.57;3.15;;;;;;;;;;5054133;28;20025;-42
2021/09/28 13:04:23;;;;;;;5.75;2.78;;;;;;;;;;5054330;28;20017;-41
2021/09/28 13:06:54;;;;;;;3.58;2.35;;;;;;;;;;5054342;28;20411;-42
2021/09/28 13:09:20;;;;;;;5.53;3.08;;;;;;;;;;5069155;28;20041;-41
2021/09/28 13:11:45;;;;;;;5.60;3.53;;;;;;;;;;5054083;28;20086;-42
2021/09/28 13:14:11;;;;;;;6.30;3.08;;;;;;;;;;5053631;28;20045;-42
2021/09/28 13:16:37;;;;;;;5.43;3.17;;;;;;;;;;5053971;28;20100;-41
2021/09/28 13:19:02;;;;;;;3.40;2.20;;;;;;;;;;5054098;28;20384;-42
2021/09/28 13:21:28;;;;;;;3.33;2.20;;;;;;;;;;5053742;28;20017;-41
2021/09/28 13:23:53;;;;;;;4.93;2.97;;;;;;;;;;5053986;28;20039;-42
2021/09/28 13:26:19;;;;;;;9.98;3.45;;;;;;;;;;5052321;28;20028;-42
2021/09/28 13:28:44;;;;;;;5.63;2.72;;;;;;;;;;5053941;28;20111;-42
2021/09/28 13:31:09;;;;;;;3.83;3.13;;;;;;;;;;5053569;28;20021;-42
2021/09/28 13:33:35;;;;;;;7.95;2.70;;;;;;;;;;5053670;28;20125;-41
2021/09/28 13:36:00;;;;;;;4.28;3.10;;;;;;;;;;5053731;28;20390;-42
2021/09/28 13:38:26;;;;;;;4.32;3.20;;;;;;;;;;5053435;28;20112;-42
2021/09/28 13:40:52;;;;;;;4.63;3.03;;;;;;;;;;5053623;28;20024;-42
2021/09/28 13:43:17;;;;;;;4.43;2.95;;;;;;;;;;5053259;28;20407;-41
2021/09/28 13:45:43;;;;;;;4.28;3.10;;;;;;;;;;5053319;28;20112;-43
2021/09/28 13:48:09;;;;;;;6.38;3.35;;;;;;;;;;5053117;28;20036;-42
2021/09/28 13:50:35;;;;;;;4.32;2.75;;;;;;;;;;5068688;28;20517;-42
2021/09/28 13:53:01;;;;;;;3.90;2.58;;;;;;;;;;5068459;28;20037;-41
2021/09/28 13:55:26;;;;;;;7.55;3.70;;;;;;;;;;5053176;28;20041;-42
2021/09/28 13:57:52;;;;;;;5.22;2.95;;;;;;;;;;5052797;28;20055;-41
2021/09/28 14:00:20;;;;;;;4.28;3.40;;;;;;;;;;5052935;28;20028;-43
2021/09/28 14:02:49;;;;;;;4.55;3.38;;;;;;;;;;5052942;28;20033;-43
2021/09/28 14:05:14;;;;;;;5.55;3.72;;;;;;;;;;5052825;28;20050;-41
2021/09/28 14:07:40;;;;;;;6.20;3.33;;;;;;;;;;5052947;28;20108;-42
2021/09/28 14:10:06;;;;;;;5.53;3.42;;;;;;;;;;5052509;28;20044;-41
2021/09/28 14:12:32;;;;;;;10.45;3.20;;;;;;;;;;5053135;28;20545;-42
2021/09/28 14:14:58;;;;;;;5.60;3.40;;;;;;;;;;5052991;28;20020;-41
2021/09/28 14:17:23;;;;;;;5.65;3.35;;;;;;;;;;5052629;28;20029;-41
2021/09/28 14:19:49;;;;;;;5.10;3.03;;;;;;;;;;5053024;28;20029;-42
2021/09/28 14:22:14;;;;;;;5.28;3.30;;;;;;;;;;5052827;28;20519;-42
2021/09/28 14:24:40;;;;;;;5.18;3.60;;;;;;;;;;5052590;28;20025;-41
2021/09/28 14:27:05;;;;;;;5.22;3.88;;;;;;;;;;5052827;28;20087;-42
2021/09/28 14:29:31;;;;;;;5.72;3.28;;;;;;;;;;5052560;28;20021;-42
2021/09/28 14:31:56;;;;;;;6.40;3.17;;;;;;;;;;5052528;28;20025;-42
2021/09/28 14:34:22;;;;;;;6.60;4.15;;;;;;;;;;5052595;28;20029;-41
2021/09/28 14:36:48;;;;;;;5.72;3.35;;;;;;;;;;5052750;28;20472;-41
2021/09/28 14:39:13;;;;;;;7.22;3.85;;;;;;;;;;5052348;28;20467;-42
2021/09/28 14:41:39;;;;;;;4.82;3.08;;;;;;;;;;5052676;28;20372;-41
2021/09/28 14:44:04;;;;;;;5.93;4.15;;;;;;;;;;5052306;28;20353;-42
2021/09/28 14:46:30;;;;;;;6.03;3.25;;;;;;;;;;5052587;28;20369;-41
2021/09/28 14:48:56;;;;;;;6.40;3.95;;;;;;;;;;5052351;28;20523;-42